createdAt,value
2022-11-15T00:01:39.709Z,11.53
2022-11-15T00:04:09.094Z,10.77
2022-11-15T00:06:38.800Z,10.65
2022-11-15T00:09:05.837Z,12.60
2022-11-15T00:11:34.929Z,7.80
2022-11-15T00:14:03.420Z,15.00
2022-11-15T00:16:30.633Z,23.75
2022-11-15T00:19:01.002Z,24.52
2022-11-15T00:21:28.357Z,15.05
2022-11-15T00:23:55.714Z,23.42
2022-11-15T00:26:25.189Z,18.80
2022-11-15T00:28:54.185Z,11.70
2022-11-15T00:31:22.034Z,7.45
2022-11-15T00:33:49.097Z,25.35
2022-11-15T00:36:17.139Z,20.95
2022-11-15T00:38:44.265Z,20.38
2022-11-15T00:41:11.422Z,17.88
2022-11-15T00:43:38.424Z,15.07
2022-11-15T00:46:05.576Z,23.52
2022-11-15T00:48:32.815Z,26.05
2022-11-15T00:50:59.858Z,16.73
2022-11-15T00:53:27.532Z,13.60
2022-11-15T00:55:57.867Z,14.63
2022-11-15T00:58:24.875Z,8.20
2022-11-15T01:00:54.545Z,11.25
2022-11-15T01:03:21.936Z,11.10
2022-11-15T01:05:48.851Z,8.07
2022-11-15T01:08:17.127Z,10.77
2022-11-15T01:10:46.219Z,9.32
2022-11-15T01:13:18.770Z,6.70
2022-11-15T01:15:45.920Z,4.72
2022-11-15T01:18:12.841Z,6.00
2022-11-15T01:20:46.436Z,5.65
2022-11-15T01:23:13.246Z,8.02
2022-11-15T01:25:43.068Z,8.07
2022-11-15T01:28:10.000Z,6.28
2022-11-15T01:30:37.820Z,8.15
2022-11-15T01:33:04.825Z,5.20
2022-11-15T01:35:31.722Z,7.32
2022-11-15T01:37:58.668Z,3.05
2022-11-15T01:40:25.608Z,12.05
2022-11-15T01:42:52.484Z,7.47
2022-11-15T01:45:22.383Z,7.03
2022-11-15T01:47:55.360Z,4.95
2022-11-15T01:50:30.579Z,7.95
2022-11-15T01:52:57.543Z,6.95
2022-11-15T01:55:28.032Z,6.43
2022-11-15T01:58:00.794Z,8.43
2022-11-15T02:00:28.322Z,5.72
2022-11-15T02:02:58.292Z,11.70
2022-11-15T02:05:25.215Z,6.38
2022-11-15T02:07:52.811Z,18.38
2022-11-15T02:10:25.843Z,3.83
2022-11-15T02:12:58.118Z,8.50
2022-11-15T02:15:33.411Z,6.78
2022-11-15T02:18:27.847Z,10.43
2022-11-15T02:21:18.975Z,8.00
2022-11-15T02:23:57.947Z,8.85
2022-11-15T02:26:55.479Z,10.85
2022-11-15T02:30:15.662Z,8.15
2022-11-15T02:33:18.935Z,12.07
2022-11-15T02:36:16.890Z,13.30
2022-11-15T02:39:01.647Z,8.13
2022-11-15T02:41:39.658Z,4.85
2022-11-15T02:44:16.920Z,6.10
2022-11-15T02:47:11.328Z,9.43
2022-11-15T02:49:48.602Z,2.88
2022-11-15T02:52:26.254Z,3.42
2022-11-15T02:55:01.649Z,3.60
2022-11-15T02:58:19.390Z,3.67
2022-11-15T03:01:28.248Z,3.25
2022-11-15T03:04:04.601Z,4.18
2022-11-15T03:06:47.940Z,3.08
2022-11-15T03:09:41.752Z,2.13
2022-11-15T03:12:16.789Z,2.75
2022-11-15T03:15:42.707Z,3.78
2022-11-15T03:18:26.319Z,3.22
2022-11-15T03:20:54.440Z,2.78
2022-11-15T03:23:26.840Z,2.50
2022-11-15T03:26:02.249Z,3.05
2022-11-15T03:28:45.381Z,2.25
2022-11-15T03:31:33.637Z,1.95
2022-11-15T03:34:05.759Z,1.88
2022-11-15T03:36:35.241Z,2.97
2022-11-15T03:39:06.852Z,1.60
2022-11-15T03:44:51.078Z,1.73
2022-11-15T03:47:47.004Z,2.15
2022-11-15T03:50:21.124Z,1.60
2022-11-15T03:52:51.628Z,1.90
2022-11-15T03:55:22.865Z,1.85
2022-11-15T03:58:00.448Z,1.73
2022-11-15T04:00:28.499Z,2.20
2022-11-15T04:02:55.588Z,2.15
2022-11-15T04:05:27.579Z,2.00
2022-11-15T04:07:54.487Z,2.45
2022-11-15T04:10:21.616Z,2.80
2022-11-15T04:12:48.567Z,2.90
2022-11-15T04:15:22.720Z,2.85
2022-11-15T04:17:56.192Z,2.47
2022-11-15T04:20:46.261Z,3.33
2022-11-15T04:23:41.131Z,3.15
2022-11-15T04:26:13.165Z,3.10
2022-11-15T04:28:58.366Z,2.58
2022-11-15T04:31:25.465Z,3.53
2022-11-15T04:33:55.168Z,7.97
2022-11-15T04:36:43.863Z,2.92
2022-11-15T04:39:13.224Z,2.75
2022-11-15T04:41:40.109Z,3.88
2022-11-15T04:44:06.999Z,4.85
2022-11-15T04:46:34.148Z,5.57
2022-11-15T04:49:01.130Z,4.35
2022-11-15T04:51:28.025Z,4.15
2022-11-15T04:53:55.001Z,4.00
2022-11-15T04:56:21.907Z,3.97
2022-11-15T04:58:51.891Z,3.78
2022-11-15T05:01:21.503Z,3.33
2022-11-15T05:04:07.152Z,3.97
2022-11-15T05:06:34.172Z,5.07
2022-11-15T05:09:01.029Z,5.25
2022-11-15T05:11:28.391Z,4.00
2022-11-15T05:13:57.907Z,9.60
2022-11-15T05:16:24.839Z,7.63
2022-11-15T05:18:54.020Z,9.18
2022-11-15T05:21:21.305Z,12.20
2022-11-15T05:23:48.499Z,11.20
2022-11-15T05:26:19.411Z,5.53
2022-11-15T05:28:48.787Z,4.57
2022-11-15T05:31:17.310Z,3.25
2022-11-15T05:33:47.822Z,3.42
2022-11-15T05:36:40.016Z,4.50
2022-11-15T05:39:12.071Z,4.35
2022-11-15T05:41:45.725Z,4.68
2022-11-15T05:44:16.200Z,4.13
2022-11-15T05:46:43.920Z,4.10
2022-11-15T05:49:16.638Z,4.22
2022-11-15T05:51:47.024Z,4.82
2022-11-15T05:54:18.934Z,6.43
2022-11-15T05:56:46.194Z,4.50
2022-11-15T05:59:15.696Z,3.78
2022-11-15T06:01:42.728Z,3.30
2022-11-15T06:04:09.760Z,3.05
2022-11-15T06:06:36.702Z,4.28
2022-11-15T06:09:06.050Z,3.22
2022-11-15T06:11:37.569Z,1.73
2022-11-15T06:16:35.584Z,2.25
2022-11-15T06:19:02.521Z,2.60
2022-11-15T06:21:30.122Z,2.28
2022-11-15T06:23:57.011Z,1.98
2022-11-15T06:26:26.559Z,2.85
2022-11-15T06:28:53.511Z,3.63
2022-11-15T06:31:20.383Z,2.25
2022-11-15T06:33:50.410Z,2.95
2022-11-15T06:36:18.221Z,3.63
2022-11-15T06:38:47.940Z,2.85
2022-11-15T06:41:21.984Z,3.38
2022-11-15T06:43:48.912Z,3.03
2022-11-15T06:46:18.796Z,3.17
2022-11-15T06:48:45.704Z,2.88
2022-11-15T06:51:12.643Z,3.47
2022-11-15T06:53:39.594Z,2.60
2022-11-15T06:56:11.166Z,3.13
2022-11-15T07:01:11.220Z,2.35
2022-11-15T07:03:46.324Z,3.17
2022-11-15T07:06:15.354Z,3.05
2022-11-15T07:08:44.737Z,2.78
2022-11-15T07:11:16.213Z,2.88
2022-11-15T07:13:43.225Z,3.65
2022-11-15T07:16:11.990Z,4.03
2022-11-15T07:18:40.906Z,2.65
2022-11-15T07:21:11.074Z,2.40
2022-11-15T07:23:39.381Z,3.53
2022-11-15T07:26:09.525Z,2.67
2022-11-15T07:28:39.175Z,2.47
2022-11-15T07:31:09.116Z,2.47
2022-11-15T07:33:38.821Z,2.03
2022-11-15T07:36:12.807Z,2.30
2022-11-15T07:38:43.126Z,3.05
2022-11-15T07:41:10.353Z,4.50
2022-11-15T07:43:37.152Z,5.15
2022-11-15T07:46:10.468Z,3.65
2022-11-15T07:48:45.398Z,4.35
2022-11-15T07:51:15.165Z,3.47
2022-11-15T07:53:45.054Z,5.03
2022-11-15T07:56:12.856Z,5.95
2022-11-15T07:58:39.765Z,4.35
2022-11-15T08:01:08.718Z,3.90
2022-11-15T08:03:38.700Z,4.03
2022-11-15T08:06:06.035Z,8.35
2022-11-15T08:08:32.939Z,3.67
2022-11-15T08:11:00.691Z,3.58
2022-11-15T08:13:27.919Z,2.65
2022-11-15T08:16:06.462Z,3.15
2022-11-15T08:18:35.989Z,3.92
2022-11-15T08:21:03.383Z,3.50
2022-11-15T08:23:30.879Z,4.55
2022-11-15T08:26:03.685Z,6.50
2022-11-15T08:28:33.702Z,4.88
2022-11-15T08:31:00.618Z,5.13
2022-11-15T08:33:28.953Z,4.35
2022-11-15T08:36:00.844Z,4.43
2022-11-15T08:41:05.072Z,3.42
2022-11-15T08:43:32.218Z,4.43
2022-11-15T08:46:02.418Z,4.30
2022-11-15T08:48:30.831Z,4.25
2022-11-15T08:50:58.465Z,7.88
2022-11-15T08:53:25.386Z,5.45
2022-11-15T08:55:52.263Z,4.50
2022-11-15T08:58:26.255Z,4.88
2022-11-15T09:00:55.623Z,3.17
2022-11-15T09:03:22.556Z,3.85
2022-11-15T09:05:49.518Z,2.55
2022-11-15T09:08:40.858Z,2.17
2022-11-15T09:11:15.660Z,2.97
2022-11-15T09:13:44.818Z,3.55
2022-11-15T09:16:13.638Z,4.50
2022-11-15T09:18:42.738Z,6.20
2022-11-15T09:21:10.323Z,5.97
2022-11-15T09:23:39.808Z,5.25
2022-11-15T09:26:09.824Z,4.30
2022-11-15T09:28:37.418Z,7.05
2022-11-15T09:31:09.170Z,4.97
2022-11-15T09:33:36.995Z,7.72
2022-11-15T09:36:15.883Z,7.15
2022-11-15T09:38:42.798Z,5.93
2022-11-15T09:41:15.859Z,8.02
2022-11-15T09:43:51.586Z,7.00
2022-11-15T09:46:50.326Z,9.95
2022-11-15T09:49:18.310Z,6.45
2022-11-15T09:51:51.091Z,5.55
2022-11-15T09:54:52.831Z,7.60
2022-11-15T09:57:36.105Z,7.85
2022-11-15T10:03:23.524Z,5.45
2022-11-15T10:05:59.085Z,7.18
2022-11-15T10:08:35.632Z,6.47
2022-11-15T10:14:10.147Z,6.00
2022-11-15T10:16:51.902Z,6.88
2022-11-15T10:22:20.982Z,5.43
2022-11-15T10:24:48.943Z,7.75
2022-11-15T10:27:20.151Z,7.15
2022-11-15T10:29:51.576Z,8.93
2022-11-15T10:32:21.974Z,7.38
2022-11-15T10:34:52.118Z,8.48
2022-11-15T10:37:33.118Z,9.05
2022-11-15T10:40:17.313Z,9.18
2022-11-15T10:42:46.919Z,9.50
2022-11-15T10:45:34.167Z,8.85
2022-11-15T10:48:15.305Z,6.82
2022-11-15T10:50:45.786Z,9.93
2022-11-15T10:53:45.146Z,6.78
2022-11-15T10:56:22.484Z,10.63
2022-11-15T10:58:58.140Z,8.25
2022-11-15T11:01:29.758Z,7.05
2022-11-15T11:04:10.113Z,7.60
2022-11-15T11:06:50.369Z,9.85
2022-11-15T11:09:34.719Z,7.13
2022-11-15T11:12:06.251Z,7.30
2022-11-15T11:17:30.410Z,11.63
2022-11-15T11:20:23.473Z,8.15
2022-11-15T11:23:14.063Z,7.70
2022-11-15T11:26:24.847Z,11.40
2022-11-15T11:29:45.667Z,8.40
2022-11-15T11:32:20.599Z,7.07
2022-11-15T11:35:39.186Z,8.30
2022-11-15T11:38:35.935Z,8.57
2022-11-15T11:41:14.783Z,9.35
2022-11-15T11:44:11.080Z,6.55
2022-11-15T11:47:15.471Z,6.38
2022-11-15T11:50:09.606Z,7.20
2022-11-15T11:52:44.530Z,10.75
2022-11-15T11:55:38.878Z,8.55
2022-11-15T11:58:20.816Z,8.70
2022-11-15T12:01:13.173Z,7.75
2022-11-15T12:03:54.143Z,6.95
2022-11-15T12:06:57.570Z,5.10
2022-11-15T12:09:36.684Z,7.93
2022-11-15T12:12:22.382Z,6.50
2022-11-15T12:15:10.693Z,6.18
2022-11-15T12:17:39.802Z,5.88
2022-11-15T12:20:21.648Z,7.50
2022-11-15T12:22:57.194Z,5.60
2022-11-15T12:25:31.911Z,7.82
2022-11-15T12:28:20.965Z,7.68
2022-11-15T12:30:57.674Z,7.05
2022-11-15T12:33:41.402Z,6.93
2022-11-15T12:36:23.377Z,6.10
2022-11-15T12:38:58.953Z,6.13
2022-11-15T12:41:31.683Z,6.47
2022-11-15T12:44:02.212Z,7.03
2022-11-15T12:46:32.035Z,7.50
2022-11-15T12:49:22.204Z,9.90
2022-11-15T12:51:49.006Z,9.25
2022-11-15T12:54:24.849Z,7.35
2022-11-15T12:57:03.961Z,8.82
2022-11-15T12:59:55.776Z,8.48
2022-11-15T13:04:58.743Z,9.15
2022-11-15T13:07:41.022Z,7.88
2022-11-15T13:10:16.279Z,8.43
2022-11-15T13:12:46.207Z,6.72
2022-11-15T13:15:13.016Z,7.15
2022-11-15T13:17:48.147Z,8.98
2022-11-15T13:20:17.607Z,7.35
2022-11-15T13:23:05.408Z,9.10
2022-11-15T13:25:40.944Z,9.63
2022-11-15T13:28:16.903Z,9.35
2022-11-15T13:30:56.179Z,10.05
2022-11-15T13:33:37.342Z,10.27
2022-11-15T13:36:17.685Z,7.88
2022-11-15T13:38:45.059Z,11.25
2022-11-15T13:41:17.898Z,8.25
2022-11-15T13:43:44.834Z,9.50
2022-11-15T13:46:24.160Z,8.55
2022-11-15T13:49:00.632Z,7.78
2022-11-15T13:51:52.004Z,8.25
2022-11-15T13:54:44.967Z,9.15
2022-11-15T13:57:31.322Z,10.25
2022-11-15T14:00:06.219Z,8.07
2022-11-15T14:02:37.301Z,10.77
2022-11-15T14:05:18.531Z,7.80
2022-11-15T14:08:23.963Z,7.70
2022-11-15T14:11:11.689Z,7.32
2022-11-15T14:13:38.765Z,9.25
2022-11-15T14:16:25.527Z,8.70
2022-11-15T14:18:56.404Z,7.70
2022-11-15T14:21:25.836Z,9.32
2022-11-15T14:23:52.742Z,7.40
2022-11-15T14:26:33.811Z,9.15
2022-11-15T14:29:30.952Z,9.15
2022-11-15T14:32:40.736Z,7.32
2022-11-15T14:35:21.186Z,8.63
2022-11-15T14:37:48.684Z,9.23
2022-11-15T14:40:24.261Z,9.40
2022-11-15T14:42:53.882Z,11.98
2022-11-15T14:45:23.460Z,13.30
2022-11-15T14:47:52.449Z,12.23
2022-11-15T14:50:23.935Z,16.83
2022-11-15T14:55:26.529Z,10.15
2022-11-15T14:57:55.974Z,7.97
2022-11-15T15:00:23.633Z,6.95
2022-11-15T15:02:55.244Z,9.13
2022-11-15T15:08:01.909Z,9.52
2022-11-15T15:10:40.741Z,7.57
2022-11-15T15:13:24.045Z,12.50
2022-11-15T15:15:52.771Z,11.55
2022-11-15T15:18:24.696Z,14.52
2022-11-15T15:21:07.871Z,15.32
2022-11-15T15:23:36.583Z,9.77
2022-11-15T15:26:03.807Z,9.45
2022-11-15T15:28:35.069Z,8.68
2022-11-15T15:31:02.929Z,11.30
2022-11-15T15:33:29.757Z,13.48
2022-11-15T15:35:58.889Z,10.82
2022-11-15T15:38:26.054Z,16.30
2022-11-15T15:40:57.465Z,13.52
2022-11-15T15:43:24.322Z,19.00
2022-11-15T15:45:53.721Z,15.35
2022-11-15T15:48:20.611Z,20.58
2022-11-15T15:50:48.259Z,17.13
2022-11-15T15:53:15.177Z,17.30
2022-11-15T15:55:44.781Z,15.77
2022-11-15T15:58:13.949Z,11.65
2022-11-15T16:00:43.793Z,14.05
2022-11-15T16:03:12.905Z,15.10
2022-11-15T16:05:41.061Z,11.75
2022-11-15T16:08:22.521Z,16.70
2022-11-15T16:10:51.838Z,19.73
2022-11-15T16:13:20.789Z,21.60
2022-11-15T16:15:53.494Z,16.30
2022-11-15T16:18:22.886Z,18.15
2022-11-15T16:20:52.970Z,17.05
2022-11-15T16:23:24.630Z,14.02
2022-11-15T16:25:58.772Z,14.05
2022-11-15T16:28:32.368Z,15.95
2022-11-15T16:31:15.563Z,13.77
2022-11-15T16:33:42.517Z,13.45
2022-11-15T16:36:33.634Z,10.43
2022-11-15T16:39:06.371Z,14.60
2022-11-15T16:41:33.884Z,12.57
2022-11-15T16:44:00.913Z,13.50
2022-11-15T16:46:29.925Z,12.13
2022-11-15T16:48:59.567Z,13.52
2022-11-15T16:51:26.496Z,9.73
2022-11-15T16:53:53.342Z,10.75
2022-11-15T16:56:31.074Z,8.40
2022-11-15T16:59:02.458Z,8.30
2022-11-15T17:01:35.915Z,7.75
2022-11-15T17:04:13.236Z,7.10
2022-11-15T17:06:44.369Z,7.50
2022-11-15T17:09:26.221Z,10.05
2022-11-15T17:11:55.712Z,6.55
2022-11-15T17:14:22.845Z,6.93
2022-11-15T17:16:51.976Z,7.80
2022-11-15T17:19:21.884Z,6.93
2022-11-15T17:21:49.722Z,7.20
2022-11-15T17:24:21.151Z,7.35
2022-11-15T17:29:17.240Z,7.07
2022-11-15T17:31:46.420Z,8.30
2022-11-15T17:34:15.817Z,8.15
2022-11-15T17:36:42.660Z,9.20
2022-11-15T17:39:11.879Z,12.45
2022-11-15T17:41:38.832Z,30.08
2022-11-15T17:44:05.673Z,39.53
2022-11-15T17:46:36.369Z,36.75
2022-11-15T17:49:06.163Z,17.83
2022-11-15T17:51:36.255Z,13.15
2022-11-15T17:54:03.308Z,11.02
2022-11-15T17:56:32.965Z,9.88
2022-11-15T17:59:05.701Z,9.85
2022-11-15T18:01:40.348Z,8.82
2022-11-15T18:04:10.565Z,10.27
2022-11-15T18:06:37.904Z,9.60
2022-11-15T18:09:08.397Z,8.35
2022-11-15T18:11:41.848Z,10.02
2022-11-15T18:14:16.623Z,10.40
2022-11-15T18:16:43.636Z,15.18
2022-11-15T18:19:14.296Z,10.05
2022-11-15T18:21:56.316Z,11.23
2022-11-15T18:24:35.311Z,14.63
2022-11-15T18:27:04.785Z,10.23
2022-11-15T18:29:38.014Z,10.38
2022-11-15T18:32:11.406Z,11.88
2022-11-15T18:34:39.007Z,11.77
2022-11-15T18:37:06.146Z,8.90
2022-11-15T18:39:33.197Z,8.68
2022-11-15T18:42:02.634Z,8.82
2022-11-15T18:44:30.375Z,7.97
2022-11-15T18:46:57.843Z,11.57
2022-11-15T18:49:29.903Z,7.43
2022-11-15T18:51:57.048Z,11.02
2022-11-15T18:54:30.955Z,8.63
2022-11-15T18:56:58.110Z,7.78
2022-11-15T18:59:27.846Z,11.60
2022-11-15T19:01:57.151Z,17.35
2022-11-15T19:04:24.621Z,19.75
2022-11-15T19:06:52.908Z,33.08
2022-11-15T19:09:20.286Z,45.35
2022-11-15T19:11:48.897Z,26.40
2022-11-15T19:14:24.064Z,20.92
2022-11-15T19:16:52.441Z,20.15
2022-11-15T19:19:25.626Z,9.57
2022-11-15T19:21:52.934Z,11.30
2022-11-15T19:24:22.252Z,11.05
2022-11-15T19:26:49.123Z,8.30
2022-11-15T19:29:18.870Z,6.90
2022-11-15T19:31:47.931Z,9.65
2022-11-15T19:34:15.246Z,10.30
2022-11-15T19:36:46.588Z,8.88
2022-11-15T19:39:17.803Z,8.52
2022-11-15T19:41:50.035Z,8.65
2022-11-15T19:44:19.722Z,9.75
2022-11-15T19:46:46.652Z,8.15
2022-11-15T19:49:16.160Z,11.85
2022-11-15T19:51:45.165Z,13.00
2022-11-15T19:54:13.508Z,10.88
2022-11-15T19:56:40.449Z,10.52
2022-11-15T19:59:11.834Z,7.32
2022-11-15T20:01:39.503Z,11.85
2022-11-15T20:04:08.081Z,8.40
2022-11-15T20:06:41.454Z,8.55
2022-11-15T20:09:12.393Z,7.63
2022-11-15T20:11:41.437Z,10.07
2022-11-15T20:14:09.761Z,7.97
2022-11-15T20:16:38.940Z,9.05
2022-11-15T20:19:08.906Z,7.55
2022-11-15T20:21:36.219Z,9.10
2022-11-15T20:24:03.758Z,11.18
2022-11-15T20:26:33.249Z,9.13
2022-11-15T20:29:02.161Z,10.40
2022-11-15T20:31:30.394Z,8.10
2022-11-15T20:33:57.705Z,9.52
2022-11-15T20:36:25.029Z,8.90
2022-11-15T20:38:56.696Z,8.93
2022-11-15T20:41:23.595Z,9.18
2022-11-15T20:43:50.567Z,13.35
2022-11-15T20:46:18.063Z,9.90
2022-11-15T20:48:44.897Z,8.65
2022-11-15T20:51:17.456Z,10.38
2022-11-15T20:53:47.436Z,9.80
2022-11-15T20:56:20.426Z,12.52
2022-11-15T20:58:50.214Z,10.32
2022-11-15T21:01:23.562Z,10.23
2022-11-15T21:03:57.642Z,8.60
2022-11-15T21:06:27.790Z,9.25
2022-11-15T21:09:24.130Z,8.68
2022-11-15T21:12:09.675Z,9.82
2022-11-15T21:14:36.967Z,6.10
2022-11-15T21:17:04.070Z,7.10
2022-11-15T21:19:35.513Z,7.53
2022-11-15T21:22:06.048Z,8.70
2022-11-15T21:24:33.149Z,6.53
2022-11-15T21:27:00.046Z,8.02
2022-11-15T21:29:36.371Z,5.50
2022-11-15T21:32:07.149Z,7.05
2022-11-15T21:34:40.152Z,5.60
2022-11-15T21:37:11.792Z,5.50
2022-11-15T21:39:41.370Z,6.78
2022-11-15T21:42:08.268Z,6.80
2022-11-15T21:44:37.299Z,8.15
2022-11-15T21:47:04.566Z,6.38
2022-11-15T21:49:31.444Z,6.82
2022-11-15T21:51:58.286Z,9.55
2022-11-15T21:54:25.141Z,8.75
2022-11-15T21:56:52.018Z,10.95
2022-11-15T21:59:19.324Z,12.38
2022-11-15T22:02:06.974Z,10.20
2022-11-15T22:04:34.177Z,9.18
2022-11-15T22:07:03.585Z,7.82
2022-11-15T22:09:30.547Z,8.75
2022-11-15T22:11:57.438Z,6.75
2022-11-15T22:14:26.899Z,11.02
2022-11-15T22:16:55.884Z,7.70
2022-11-15T22:19:22.876Z,7.78
2022-11-15T22:21:51.933Z,9.07
2022-11-15T22:24:19.001Z,7.47
2022-11-15T22:26:45.983Z,8.85
2022-11-15T22:29:12.997Z,22.17
2022-11-15T22:31:40.019Z,14.25
2022-11-15T22:34:07.088Z,11.50
2022-11-15T22:36:52.550Z,9.65
2022-11-15T22:39:25.524Z,9.07
2022-11-15T22:41:53.319Z,12.10
2022-11-15T22:44:20.297Z,13.65
2022-11-15T22:46:47.218Z,11.07
2022-11-15T22:49:18.551Z,14.93
2022-11-15T22:51:47.982Z,10.27
2022-11-15T22:54:14.863Z,10.77
2022-11-15T22:56:41.783Z,12.98
2022-11-15T22:59:08.722Z,8.77
2022-11-15T23:01:38.617Z,9.02
2022-11-15T23:04:05.567Z,8.95
2022-11-15T23:06:32.546Z,7.75
2022-11-15T23:09:00.494Z,6.88
2022-11-15T23:11:48.149Z,8.93
2022-11-15T23:14:15.127Z,5.70
2022-11-15T23:16:42.096Z,6.88
2022-11-15T23:19:11.842Z,7.95
2022-11-15T23:22:03.471Z,7.82
2022-11-15T23:24:34.320Z,6.55
2022-11-15T23:27:10.454Z,6.15
2022-11-15T23:29:57.734Z,5.28
2022-11-15T23:32:44.338Z,6.35
2022-11-15T23:35:13.600Z,6.78
2022-11-15T23:37:40.520Z,5.25
2022-11-15T23:40:11.022Z,5.55
2022-11-15T23:42:39.123Z,5.55
2022-11-15T23:45:07.038Z,5.57
2022-11-15T23:47:34.145Z,5.85
2022-11-15T23:50:01.136Z,4.50
2022-11-15T23:52:28.097Z,5.45
2022-11-15T23:54:57.263Z,7.20
2022-11-15T23:57:24.252Z,3.58
2022-11-15T23:59:53.371Z,3.90
